sensor_id;sensor_type;location;lat;lon;timestamp;temperature;humidity
2855;DHT22;1435;49.472;10.940;2022-11-04T00:03:55;11.80;99.90
2855;DHT22;1435;49.472;10.940;2022-11-04T00:08:57;11.80;99.90
2855;DHT22;1435;49.472;10.940;2022-11-04T00:14:01;11.70;99.90
2855;DHT22;1435;49.472;10.940;2022-11-04T00:19:03;11.70;99.90
2855;DHT22;1435;49.472;10.940;2022-11-04T00:24:05;11.70;99.90
2855;DHT22;1435;49.472;10.940;2022-11-04T00:29:27;11.70;99.90
2855;DHT22;1435;49.472;10.940;2022-11-04T00:34:30;11.70;99.90
2855;DHT22;1435;49.472;10.940;2022-11-04T00:39:32;11.60;99.90
2855;DHT22;1435;49.472;10.940;2022-11-04T00:44:35;11.50;99.90
2855;DHT22;1435;49.472;10.940;2022-11-04T00:49:36;11.50;99.90
2855;DHT22;1435;49.472;10.940;2022-11-04T00:54:38;11.30;99.90
2855;DHT22;1435;49.472;10.940;2022-11-04T00:59:41;11.40;99.90
2855;DHT22;1435;49.472;10.940;2022-11-04T01:04:45;11.50;99.90
2855;DHT22;1435;49.472;10.940;2022-11-04T01:09:47;11.60;99.90
2855;DHT22;1435;49.472;10.940;2022-11-04T01:14:51;11.60;99.90
2855;DHT22;1435;49.472;10.940;2022-11-04T01:19:53;11.60;99.90
2855;DHT22;1435;49.472;10.940;2022-11-04T01:24:54;11.60;99.90
2855;DHT22;1435;49.472;10.940;2022-11-04T01:29:57;11.60;99.90
2855;DHT22;1435;49.472;10.940;2022-11-04T01:34:59;11.60;99.90
2855;DHT22;1435;49.472;10.940;2022-11-04T01:40:01;11.60;99.90
2855;DHT22;1435;49.472;10.940;2022-11-04T01:45:11;11.70;99.90
2855;DHT22;1435;49.472;10.940;2022-11-04T01:50:16;11.50;99.90
2855;DHT22;1435;49.472;10.940;2022-11-04T01:55:22;11.60;99.90
2855;DHT22;1435;49.472;10.940;2022-11-04T02:00:25;11.70;99.90
2855;DHT22;1435;49.472;10.940;2022-11-04T02:05:28;11.70;99.90
2855;DHT22;1435;49.472;10.940;2022-11-04T02:10:31;11.60;99.90
2855;DHT22;1435;49.472;10.940;2022-11-04T02:15:41;11.60;99.90
2855;DHT22;1435;49.472;10.940;2022-11-04T02:21:04;11.60;99.90
2855;DHT22;1435;49.472;10.940;2022-11-04T02:26:54;11.70;99.90
2855;DHT22;1435;49.472;10.940;2022-11-04T02:32:05;11.70;99.90
2855;DHT22;1435;49.472;10.940;2022-11-04T02:37:14;11.50;99.90
2855;DHT22;1435;49.472;10.940;2022-11-04T02:42:25;11.60;99.90
2855;DHT22;1435;49.472;10.940;2022-11-04T02:47:30;11.60;99.90
2855;DHT22;1435;49.472;10.940;2022-11-04T02:52:39;11.60;99.90
2855;DHT22;1435;49.472;10.940;2022-11-04T02:57:43;11.60;99.90
2855;DHT22;1435;49.472;10.940;2022-11-04T03:02:51;11.70;99.90
2855;DHT22;1435;49.472;10.940;2022-11-04T03:07:56;11.70;99.90
2855;DHT22;1435;49.472;10.940;2022-11-04T03:13:02;11.60;99.90
2855;DHT22;1435;49.472;10.940;2022-11-04T03:18:13;11.70;99.90
2855;DHT22;1435;49.472;10.940;2022-11-04T03:23:16;11.80;99.90
2855;DHT22;1435;49.472;10.940;2022-11-04T03:28:29;11.80;99.90
2855;DHT22;1435;49.472;10.940;2022-11-04T03:33:39;11.80;99.90
2855;DHT22;1435;49.472;10.940;2022-11-04T03:38:41;11.80;99.90
2855;DHT22;1435;49.472;10.940;2022-11-04T03:43:43;11.80;99.90
2855;DHT22;1435;49.472;10.940;2022-11-04T03:48:46;11.90;99.90
2855;DHT22;1435;49.472;10.940;2022-11-04T03:53:49;11.90;99.90
2855;DHT22;1435;49.472;10.940;2022-11-04T03:58:59;11.90;99.90
2855;DHT22;1435;49.472;10.940;2022-11-04T04:04:13;11.90;99.90
2855;DHT22;1435;49.472;10.940;2022-11-04T04:09:20;12.00;99.90
2855;DHT22;1435;49.472;10.940;2022-11-04T04:14:26;11.90;99.90
2855;DHT22;1435;49.472;10.940;2022-11-04T04:19:48;11.90;99.90
2855;DHT22;1435;49.472;10.940;2022-11-04T04:24:53;11.90;99.90
2855;DHT22;1435;49.472;10.940;2022-11-04T04:30:14;11.80;99.90
2855;DHT22;1435;49.472;10.940;2022-11-04T04:35:20;12.00;99.90
2855;DHT22;1435;49.472;10.940;2022-11-04T04:40:42;11.90;99.90
2855;DHT22;1435;49.472;10.940;2022-11-04T04:46:03;12.00;99.90
2855;DHT22;1435;49.472;10.940;2022-11-04T04:51:06;11.80;99.90
2855;DHT22;1435;49.472;10.940;2022-11-04T04:56:08;11.70;99.90
2855;DHT22;1435;49.472;10.940;2022-11-04T05:01:10;11.80;99.90
2855;DHT22;1435;49.472;10.940;2022-11-04T05:06:13;11.70;99.90
2855;DHT22;1435;49.472;10.940;2022-11-04T05:11:15;11.70;99.90
2855;DHT22;1435;49.472;10.940;2022-11-04T05:16:17;11.80;99.90
2855;DHT22;1435;49.472;10.940;2022-11-04T05:21:20;11.80;99.90
2855;DHT22;1435;49.472;10.940;2022-11-04T05:26:22;11.70;99.90
2855;DHT22;1435;49.472;10.940;2022-11-04T05:31:23;11.60;99.90
2855;DHT22;1435;49.472;10.940;2022-11-04T05:36:26;11.40;99.90
2855;DHT22;1435;49.472;10.940;2022-11-04T05:41:29;11.50;99.90
2855;DHT22;1435;49.472;10.940;2022-11-04T05:46:30;11.40;99.90
2855;DHT22;1435;49.472;10.940;2022-11-04T05:51:33;11.40;99.90
2855;DHT22;1435;49.472;10.940;2022-11-04T05:56:35;11.40;99.90
2855;DHT22;1435;49.472;10.940;2022-11-04T06:01:39;11.40;99.90
2855;DHT22;1435;49.472;10.940;2022-11-04T06:06:43;11.40;99.90
2855;DHT22;1435;49.472;10.940;2022-11-04T06:11:45;11.40;99.90
2855;DHT22;1435;49.472;10.940;2022-11-04T06:16:47;11.30;99.90
2855;DHT22;1435;49.472;10.940;2022-11-04T06:21:51;11.50;99.90
2855;DHT22;1435;49.472;10.940;2022-11-04T06:26:53;11.40;99.90
2855;DHT22;1435;49.472;10.940;2022-11-04T06:31:55;11.50;99.90
2855;DHT22;1435;49.472;10.940;2022-11-04T06:36:58;11.60;99.90
2855;DHT22;1435;49.472;10.940;2022-11-04T06:42:00;11.70;99.90
2855;DHT22;1435;49.472;10.940;2022-11-04T06:47:03;11.60;99.90
2855;DHT22;1435;49.472;10.940;2022-11-04T06:52:06;11.60;99.90
2855;DHT22;1435;49.472;10.940;2022-11-04T06:57:09;11.50;99.90
2855;DHT22;1435;49.472;10.940;2022-11-04T07:02:11;11.50;99.90
2855;DHT22;1435;49.472;10.940;2022-11-04T07:07:14;11.50;99.90
2855;DHT22;1435;49.472;10.940;2022-11-04T07:12:16;11.60;99.90
2855;DHT22;1435;49.472;10.940;2022-11-04T07:17:18;11.60;99.90
2855;DHT22;1435;49.472;10.940;2022-11-04T07:22:21;11.50;99.90
2855;DHT22;1435;49.472;10.940;2022-11-04T07:27:23;11.40;99.90
2855;DHT22;1435;49.472;10.940;2022-11-04T07:32:24;11.50;99.90
2855;DHT22;1435;49.472;10.940;2022-11-04T07:37:28;11.60;99.90
2855;DHT22;1435;49.472;10.940;2022-11-04T07:42:29;11.50;99.90
2855;DHT22;1435;49.472;10.940;2022-11-04T07:47:31;11.70;99.90
2855;DHT22;1435;49.472;10.940;2022-11-04T07:52:35;11.60;99.90
2855;DHT22;1435;49.472;10.940;2022-11-04T07:57:36;11.40;99.90
2855;DHT22;1435;49.472;10.940;2022-11-04T08:02:38;11.40;99.90
2855;DHT22;1435;49.472;10.940;2022-11-04T08:07:41;11.50;99.90
2855;DHT22;1435;49.472;10.940;2022-11-04T08:12:44;11.50;99.90
2855;DHT22;1435;49.472;10.940;2022-11-04T08:17:45;11.60;99.90
2855;DHT22;1435;49.472;10.940;2022-11-04T08:22:49;11.60;99.90
2855;DHT22;1435;49.472;10.940;2022-11-04T08:27:50;11.60;99.90
2855;DHT22;1435;49.472;10.940;2022-11-04T08:32:53;11.60;99.90
2855;DHT22;1435;49.472;10.940;2022-11-04T08:37:56;11.60;99.90
2855;DHT22;1435;49.472;10.940;2022-11-04T08:42:58;11.60;99.90
2855;DHT22;1435;49.472;10.940;2022-11-04T08:47:59;11.70;99.90
2855;DHT22;1435;49.472;10.940;2022-11-04T08:53:03;11.60;99.90
2855;DHT22;1435;49.472;10.940;2022-11-04T08:58:05;11.50;99.90
2855;DHT22;1435;49.472;10.940;2022-11-04T09:03:07;11.60;99.90
2855;DHT22;1435;49.472;10.940;2022-11-04T09:08:10;11.60;99.90
2855;DHT22;1435;49.472;10.940;2022-11-04T09:13:13;11.60;99.90
2855;DHT22;1435;49.472;10.940;2022-11-04T09:18:15;11.60;99.90
2855;DHT22;1435;49.472;10.940;2022-11-04T09:23:19;11.60;99.90
2855;DHT22;1435;49.472;10.940;2022-11-04T09:28:21;11.60;99.90
2855;DHT22;1435;49.472;10.940;2022-11-04T09:33:23;11.60;99.90
2855;DHT22;1435;49.472;10.940;2022-11-04T09:38:26;11.60;99.90
2855;DHT22;1435;49.472;10.940;2022-11-04T09:43:38;11.50;99.90
2855;DHT22;1435;49.472;10.940;2022-11-04T09:48:48;11.60;99.90
2855;DHT22;1435;49.472;10.940;2022-11-04T09:53:56;11.60;99.90
2855;DHT22;1435;49.472;10.940;2022-11-04T09:59:00;11.70;99.90
2855;DHT22;1435;49.472;10.940;2022-11-04T10:04:17;11.60;99.90
2855;DHT22;1435;49.472;10.940;2022-11-04T10:09:38;11.60;99.90
2855;DHT22;1435;49.472;10.940;2022-11-04T10:14:58;11.60;99.90
2855;DHT22;1435;49.472;10.940;2022-11-04T10:20:16;11.50;99.90
2855;DHT22;1435;49.472;10.940;2022-11-04T10:25:23;11.60;99.90
2855;DHT22;1435;49.472;10.940;2022-11-04T10:30:26;11.60;99.90
2855;DHT22;1435;49.472;10.940;2022-11-04T10:35:32;11.50;99.90
2855;DHT22;1435;49.472;10.940;2022-11-04T10:40:39;11.40;99.90
2855;DHT22;1435;49.472;10.940;2022-11-04T10:45:51;11.40;99.90
2855;DHT22;1435;49.472;10.940;2022-11-04T10:50:57;11.50;99.90
2855;DHT22;1435;49.472;10.940;2022-11-04T10:56:03;11.40;99.90
2855;DHT22;1435;49.472;10.940;2022-11-04T11:01:23;11.40;99.90
2855;DHT22;1435;49.472;10.940;2022-11-04T11:06:27;11.40;99.90
2855;DHT22;1435;49.472;10.940;2022-11-04T11:11:45;11.50;99.90
2855;DHT22;1435;49.472;10.940;2022-11-04T11:16:47;11.60;99.90
2855;DHT22;1435;49.472;10.940;2022-11-04T11:21:51;11.50;99.90
2855;DHT22;1435;49.472;10.940;2022-11-04T11:26:56;11.50;99.90
2855;DHT22;1435;49.472;10.940;2022-11-04T11:31:59;11.60;99.90
2855;DHT22;1435;49.472;10.940;2022-11-04T11:37:01;11.60;99.90
2855;DHT22;1435;49.472;10.940;2022-11-04T11:42:07;11.60;99.90
2855;DHT22;1435;49.472;10.940;2022-11-04T11:47:18;11.80;99.90
2855;DHT22;1435;49.472;10.940;2022-11-04T11:52:31;11.90;99.90
2855;DHT22;1435;49.472;10.940;2022-11-04T12:02:49;12.00;99.90
2855;DHT22;1435;49.472;10.940;2022-11-04T12:07:57;11.90;99.90
2855;DHT22;1435;49.472;10.940;2022-11-04T12:13:09;11.90;99.90
2855;DHT22;1435;49.472;10.940;2022-11-04T12:18:33;11.90;99.90
2855;DHT22;1435;49.472;10.940;2022-11-04T12:23:41;12.00;99.90
2855;DHT22;1435;49.472;10.940;2022-11-04T12:29:01;12.00;99.90
2855;DHT22;1435;49.472;10.940;2022-11-04T12:34:10;12.10;99.90
2855;DHT22;1435;49.472;10.940;2022-11-04T12:39:21;12.20;99.90
2855;DHT22;1435;49.472;10.940;2022-11-04T12:44:31;12.20;99.90
2855;DHT22;1435;49.472;10.940;2022-11-04T12:50:01;12.10;99.90
2855;DHT22;1435;49.472;10.940;2022-11-04T12:55:15;12.10;99.90
2855;DHT22;1435;49.472;10.940;2022-11-04T13:00:20;12.20;99.90
2855;DHT22;1435;49.472;10.940;2022-11-04T13:05:35;12.20;99.90
2855;DHT22;1435;49.472;10.940;2022-11-04T13:10:41;12.30;99.90
2855;DHT22;1435;49.472;10.940;2022-11-04T13:15:50;12.30;99.90
2855;DHT22;1435;49.472;10.940;2022-11-04T13:20:57;12.30;99.90
2855;DHT22;1435;49.472;10.940;2022-11-04T13:26:01;12.40;99.90
2855;DHT22;1435;49.472;10.940;2022-11-04T13:31:10;12.50;99.90
2855;DHT22;1435;49.472;10.940;2022-11-04T13:36:23;12.50;99.90
2855;DHT22;1435;49.472;10.940;2022-11-04T13:41:38;12.40;99.90
2855;DHT22;1435;49.472;10.940;2022-11-04T13:46:46;12.40;99.90
2855;DHT22;1435;49.472;10.940;2022-11-04T13:52:00;12.40;99.90
2855;DHT22;1435;49.472;10.940;2022-11-04T13:57:05;12.40;99.90
2855;DHT22;1435;49.472;10.940;2022-11-04T14:02:32;12.50;99.90
2855;DHT22;1435;49.472;10.940;2022-11-04T14:08:07;12.50;99.90
2855;DHT22;1435;49.472;10.940;2022-11-04T14:24:30;12.60;99.90
2855;DHT22;1435;49.472;10.940;2022-11-04T14:29:33;12.70;99.90
2855;DHT22;1435;49.472;10.940;2022-11-04T14:34:35;12.80;99.90
2855;DHT22;1435;49.472;10.940;2022-11-04T14:39:41;12.70;99.90
2855;DHT22;1435;49.472;10.940;2022-11-04T14:44:44;12.80;99.90
2855;DHT22;1435;49.472;10.940;2022-11-04T14:49:48;12.80;99.90
2855;DHT22;1435;49.472;10.940;2022-11-04T14:54:55;12.80;99.90
2855;DHT22;1435;49.472;10.940;2022-11-04T14:59:57;12.80;99.90
2855;DHT22;1435;49.472;10.940;2022-11-04T15:05:01;12.80;99.90
2855;DHT22;1435;49.472;10.940;2022-11-04T15:10:18;12.70;99.90
2855;DHT22;1435;49.472;10.940;2022-11-04T15:15:30;12.70;99.90
2855;DHT22;1435;49.472;10.940;2022-11-04T15:20:35;12.60;99.90
2855;DHT22;1435;49.472;10.940;2022-11-04T15:25:45;12.50;99.90
2855;DHT22;1435;49.472;10.940;2022-11-04T15:31:12;12.50;99.90
2855;DHT22;1435;49.472;10.940;2022-11-04T15:36:18;12.60;99.90
2855;DHT22;1435;49.472;10.940;2022-11-04T15:41:23;12.50;99.90
2855;DHT22;1435;49.472;10.940;2022-11-04T15:46:52;12.50;99.90
2855;DHT22;1435;49.472;10.940;2022-11-04T15:51:58;12.40;99.90
2855;DHT22;1435;49.472;10.940;2022-11-04T15:57:04;12.40;99.90
2855;DHT22;1435;49.472;10.940;2022-11-04T16:02:21;12.30;99.90
2855;DHT22;1435;49.472;10.940;2022-11-04T16:07:24;12.20;99.90
2855;DHT22;1435;49.472;10.940;2022-11-04T16:12:35;12.20;99.90
2855;DHT22;1435;49.472;10.940;2022-11-04T16:17:42;12.10;99.90
2855;DHT22;1435;49.472;10.940;2022-11-04T16:22:45;12.10;99.90
2855;DHT22;1435;49.472;10.940;2022-11-04T16:27:48;11.90;99.90
2855;DHT22;1435;49.472;10.940;2022-11-04T16:32:51;11.90;99.90
2855;DHT22;1435;49.472;10.940;2022-11-04T16:37:55;11.90;99.90
2855;DHT22;1435;49.472;10.940;2022-11-04T16:42:58;11.80;99.90
2855;DHT22;1435;49.472;10.940;2022-11-04T16:48:00;11.80;99.90
2855;DHT22;1435;49.472;10.940;2022-11-04T16:53:02;11.70;99.90
2855;DHT22;1435;49.472;10.940;2022-11-04T16:58:05;11.70;99.90
2855;DHT22;1435;49.472;10.940;2022-11-04T17:03:13;11.60;99.90
2855;DHT22;1435;49.472;10.940;2022-11-04T17:08:20;11.50;99.90
2855;DHT22;1435;49.472;10.940;2022-11-04T17:13:23;11.40;99.90
2855;DHT22;1435;49.472;10.940;2022-11-04T17:18:28;11.50;99.90
2855;DHT22;1435;49.472;10.940;2022-11-04T17:23:30;11.40;99.90
2855;DHT22;1435;49.472;10.940;2022-11-04T17:28:33;11.40;99.90
2855;DHT22;1435;49.472;10.940;2022-11-04T17:33:35;11.30;99.90
2855;DHT22;1435;49.472;10.940;2022-11-04T17:38:36;11.20;99.90
2855;DHT22;1435;49.472;10.940;2022-11-04T17:43:40;11.30;99.90
2855;DHT22;1435;49.472;10.940;2022-11-04T17:48:59;11.20;99.90
2855;DHT22;1435;49.472;10.940;2022-11-04T17:54:01;11.30;99.90
2855;DHT22;1435;49.472;10.940;2022-11-04T17:59:04;11.40;99.90
2855;DHT22;1435;49.472;10.940;2022-11-04T18:04:08;11.40;99.90
2855;DHT22;1435;49.472;10.940;2022-11-04T18:09:12;11.40;99.90
2855;DHT22;1435;49.472;10.940;2022-11-04T18:14:17;11.30;99.90
2855;DHT22;1435;49.472;10.940;2022-11-04T18:19:20;11.30;99.90
2855;DHT22;1435;49.472;10.940;2022-11-04T18:24:23;11.30;99.90
2855;DHT22;1435;49.472;10.940;2022-11-04T18:29:26;11.30;99.90
2855;DHT22;1435;49.472;10.940;2022-11-04T18:34:28;11.30;99.90
2855;DHT22;1435;49.472;10.940;2022-11-04T18:39:30;11.30;99.90
2855;DHT22;1435;49.472;10.940;2022-11-04T18:44:33;11.20;99.90
2855;DHT22;1435;49.472;10.940;2022-11-04T18:49:35;11.10;99.90
2855;DHT22;1435;49.472;10.940;2022-11-04T18:54:37;11.00;99.90
2855;DHT22;1435;49.472;10.940;2022-11-04T18:59:40;11.00;99.90
2855;DHT22;1435;49.472;10.940;2022-11-04T19:04:42;10.90;99.90
2855;DHT22;1435;49.472;10.940;2022-11-04T19:09:44;10.90;99.90
2855;DHT22;1435;49.472;10.940;2022-11-04T19:14:47;10.80;99.90
2855;DHT22;1435;49.472;10.940;2022-11-04T19:19:49;10.80;99.90
2855;DHT22;1435;49.472;10.940;2022-11-04T19:24:51;10.80;99.90
2855;DHT22;1435;49.472;10.940;2022-11-04T19:29:54;10.80;99.90
2855;DHT22;1435;49.472;10.940;2022-11-04T19:34:56;10.80;99.90
2855;DHT22;1435;49.472;10.940;2022-11-04T19:39:58;10.70;99.90
2855;DHT22;1435;49.472;10.940;2022-11-04T19:45:01;10.80;99.90
2855;DHT22;1435;49.472;10.940;2022-11-04T19:50:03;10.80;99.90
2855;DHT22;1435;49.472;10.940;2022-11-04T19:55:06;10.80;99.90
2855;DHT22;1435;49.472;10.940;2022-11-04T20:00:10;10.80;99.90
2855;DHT22;1435;49.472;10.940;2022-11-04T20:05:12;10.80;99.90
2855;DHT22;1435;49.472;10.940;2022-11-04T20:10:14;10.90;99.90
2855;DHT22;1435;49.472;10.940;2022-11-04T20:15:17;10.90;99.90
2855;DHT22;1435;49.472;10.940;2022-11-04T20:20:19;11.00;99.90
2855;DHT22;1435;49.472;10.940;2022-11-04T20:25:20;11.00;99.90
2855;DHT22;1435;49.472;10.940;2022-11-04T20:30:24;11.00;99.90
2855;DHT22;1435;49.472;10.940;2022-11-04T20:35:25;11.10;99.90
2855;DHT22;1435;49.472;10.940;2022-11-04T20:40:27;11.00;99.90
2855;DHT22;1435;49.472;10.940;2022-11-04T20:45:30;11.10;99.90
2855;DHT22;1435;49.472;10.940;2022-11-04T20:50:32;11.10;99.90
2855;DHT22;1435;49.472;10.940;2022-11-04T20:55:38;11.10;99.90
2855;DHT22;1435;49.472;10.940;2022-11-04T21:00:41;11.10;99.90
2855;DHT22;1435;49.472;10.940;2022-11-04T21:05:43;10.90;99.90
2855;DHT22;1435;49.472;10.940;2022-11-04T21:10:47;11.00;99.90
2855;DHT22;1435;49.472;10.940;2022-11-04T21:15:55;11.00;99.90
2855;DHT22;1435;49.472;10.940;2022-11-04T21:20:57;11.10;99.90
2855;DHT22;1435;49.472;10.940;2022-11-04T21:26:04;11.10;99.90
2855;DHT22;1435;49.472;10.940;2022-11-04T21:31:09;11.00;99.90
2855;DHT22;1435;49.472;10.940;2022-11-04T21:36:12;11.00;99.90
2855;DHT22;1435;49.472;10.940;2022-11-04T21:41:16;11.00;99.90
2855;DHT22;1435;49.472;10.940;2022-11-04T21:46:19;11.00;99.90
2855;DHT22;1435;49.472;10.940;2022-11-04T21:51:23;10.90;99.90
2855;DHT22;1435;49.472;10.940;2022-11-04T21:56:27;10.90;99.90
2855;DHT22;1435;49.472;10.940;2022-11-04T22:01:33;10.90;99.90
2855;DHT22;1435;49.472;10.940;2022-11-04T22:06:35;10.90;99.90
2855;DHT22;1435;49.472;10.940;2022-11-04T22:11:37;10.90;99.90
2855;DHT22;1435;49.472;10.940;2022-11-04T22:16:41;10.90;99.90
2855;DHT22;1435;49.472;10.940;2022-11-04T22:21:44;10.90;99.90
2855;DHT22;1435;49.472;10.940;2022-11-04T22:26:46;10.80;99.90
2855;DHT22;1435;49.472;10.940;2022-11-04T22:31:49;10.80;99.90
2855;DHT22;1435;49.472;10.940;2022-11-04T22:36:51;10.80;99.90
2855;DHT22;1435;49.472;10.940;2022-11-04T22:41:53;10.80;99.90
2855;DHT22;1435;49.472;10.940;2022-11-04T22:46:56;10.80;99.90
2855;DHT22;1435;49.472;10.940;2022-11-04T22:51:58;10.80;99.90
2855;DHT22;1435;49.472;10.940;2022-11-04T22:56:59;10.80;99.90
2855;DHT22;1435;49.472;10.940;2022-11-04T23:02:02;10.70;99.90
2855;DHT22;1435;49.472;10.940;2022-11-04T23:07:05;10.70;99.90
2855;DHT22;1435;49.472;10.940;2022-11-04T23:12:07;10.70;99.90
2855;DHT22;1435;49.472;10.940;2022-11-04T23:17:28;10.60;99.90
2855;DHT22;1435;49.472;10.940;2022-11-04T23:22:58;10.50;99.90
2855;DHT22;1435;49.472;10.940;2022-11-04T23:28:18;10.40;99.90
2855;DHT22;1435;49.472;10.940;2022-11-04T23:33:38;10.30;99.90
2855;DHT22;1435;49.472;10.940;2022-11-04T23:38:57;10.30;99.90
2855;DHT22;1435;49.472;10.940;2022-11-04T23:43:59;10.20;99.90
2855;DHT22;1435;49.472;10.940;2022-11-04T23:49:03;10.20;99.90
2855;DHT22;1435;49.472;10.940;2022-11-04T23:54:22;10.20;99.90
2855;DHT22;1435;49.472;10.940;2022-11-04T23:59:41;10.20;99.90
